Time;durP1;ratioP1;P1;durP2;ratioP2;P2;SDS_P1;SDS_P2;PMS_P1;PMS_P2;Temp;Humidity;BMP_temperature;BMP_pressure;BME280_temperature;BME280_humidity;BME280_pressure;Samples;Min_cycle;Max_cycle;Signal;HPM_P1;HPM_P2
2022/10/09 00:01:25;;;;;;;0.85;0.77;;;18.80;54.10;;;;;;6226050;22;20137;-80
2022/10/09 00:03:53;;;;;;;0.77;0.77;;;18.80;54.10;;;;;;6200210;22;20160;-80
2022/10/09 00:06:21;;;;;;;0.95;0.75;;;18.90;54.20;;;;;;6225795;22;20140;-80
2022/10/09 00:08:47;;;;;;;0.93;0.90;;;18.80;54.10;;;;;;6225947;22;20133;-81
2022/10/09 00:11:18;;;;;;;0.75;0.75;;;18.80;54.10;;;;;;6277737;22;20144;-80
2022/10/09 00:13:44;;;;;;;0.60;0.60;;;18.80;54.10;;;;;;6226237;22;20149;-81
2022/10/09 00:16:11;;;;;;;1.02;0.85;;;18.80;54.10;;;;;;6250761;22;20199;-80
2022/10/09 00:18:37;;;;;;;0.68;0.68;;;18.80;54.20;;;;;;6277496;22;20133;-81
2022/10/09 00:21:04;;;;;;;1.30;0.80;;;18.80;54.20;;;;;;6250931;22;20208;-81
2022/10/09 00:23:30;;;;;;;1.08;0.90;;;18.80;54.20;;;;;;6250630;22;20222;-80
2022/10/09 00:25:58;;;;;;;0.75;0.75;;;18.80;54.20;;;;;;6277707;22;20224;-81
2022/10/09 00:28:24;;;;;;;0.88;0.77;;;18.80;54.20;;;;;;6200517;22;20615;-80
2022/10/09 00:30:50;;;;;;;1.10;0.88;;;18.80;54.20;;;;;;6277605;22;20219;-80
2022/10/09 00:33:16;;;;;;;1.00;0.90;;;18.80;54.20;;;;;;6277968;22;20192;-80
2022/10/09 00:35:42;;;;;;;0.80;0.80;;;18.80;54.20;;;;;;6277712;22;20172;-81
2022/10/09 00:38:08;;;;;;;0.70;0.70;;;18.80;54.20;;;;;;6277487;22;20140;-81
2022/10/09 00:40:34;;;;;;;1.23;0.77;;;18.80;54.30;;;;;;6225488;22;20137;-81
2022/10/09 00:43:00;;;;;;;0.80;0.80;;;18.80;54.30;;;;;;6277661;22;20143;-80
2022/10/09 00:45:26;;;;;;;0.88;0.73;;;18.70;54.30;;;;;;6277595;22;20208;-80
2022/10/09 00:47:54;;;;;;;1.25;0.80;;;18.80;54.30;;;;;;6277417;22;20137;-80
2022/10/09 00:50:26;;;;;;;0.60;0.60;;;18.80;54.30;;;;;;6277711;22;20141;-80
2022/10/09 00:52:53;;;;;;;0.65;0.57;;;18.80;54.40;;;;;;6225392;22;20171;-80
2022/10/09 00:55:19;;;;;;;1.00;0.90;;;18.80;54.40;;;;;;6277196;22;20163;-82
2022/10/09 00:57:45;;;;;;;0.70;0.70;;;18.70;54.30;;;;;;6250389;22;20132;-80
2022/10/09 01:00:11;;;;;;;1.00;0.82;;;18.70;54.40;;;;;;6277357;22;20179;-81
2022/10/09 01:02:37;;;;;;;0.82;0.70;;;18.70;54.40;;;;;;6250298;22;20129;-80
2022/10/09 01:05:03;;;;;;;1.33;0.80;;;18.80;54.40;;;;;;6277311;22;20141;-81
2022/10/09 01:07:41;;;;;;;0.75;0.75;;;18.70;54.40;;;;;;6277452;22;20261;-81
2022/10/09 01:10:18;;;;;;;0.82;0.82;;;18.80;54.40;;;;;;6250612;22;20144;-80
2022/10/09 01:13:04;;;;;;;0.80;0.80;;;18.70;54.40;;;;;;6276891;22;20273;-81
2022/10/09 01:15:34;;;;;;;0.98;0.80;;;18.80;54.40;;;;;;6253728;22;20161;-80
2022/10/09 01:18:15;;;;;;;0.70;0.70;;;18.80;54.50;;;;;;6277598;22;20240;-80
2022/10/09 01:20:48;;;;;;;0.80;0.80;;;18.70;54.50;;;;;;6250320;22;20145;-80
2022/10/09 01:23:27;;;;;;;0.77;0.60;;;18.70;54.50;;;;;;6251083;22;20208;-80
2022/10/09 01:26:15;;;;;;;0.82;0.70;;;18.70;54.50;;;;;;6252606;22;20141;-80
2022/10/09 01:28:42;;;;;;;0.82;0.80;;;18.70;54.50;;;;;;6253136;22;20133;-81
2022/10/09 01:31:08;;;;;;;0.80;0.75;;;18.70;54.60;;;;;;6224878;22;20141;-81
2022/10/09 01:33:34;;;;;;;1.10;0.80;;;18.70;54.50;;;;;;6277421;22;20215;-81
2022/10/09 01:35:59;;;;;;;0.68;0.68;;;18.70;54.50;;;;;;6250003;22;20596;-80
2022/10/09 01:38:26;;;;;;;0.85;0.70;;;18.70;54.60;;;;;;6250065;22;20129;-80
2022/10/09 01:40:52;;;;;;;0.57;0.52;;;18.70;54.60;;;;;;6277293;22;20141;-81
2022/10/09 01:43:18;;;;;;;0.85;0.70;;;18.70;54.60;;;;;;6250175;22;20160;-80
2022/10/09 01:45:44;;;;;;;0.98;0.73;;;18.70;54.60;;;;;;6276756;22;20137;-80
2022/10/09 01:48:17;;;;;;;0.60;0.60;;;18.70;54.60;;;;;;6224733;22;20441;-80
2022/10/09 01:50:44;;;;;;;0.95;0.82;;;18.70;54.70;;;;;;6276859;22;20137;-80
2022/10/09 01:53:13;;;;;;;0.88;0.80;;;18.70;54.70;;;;;;6250076;22;20133;-81
2022/10/09 01:55:58;;;;;;;0.70;0.70;;;18.70;54.70;;;;;;6249661;22;20226;-80
2022/10/09 01:58:40;;;;;;;0.70;0.70;;;18.70;54.70;;;;;;6249769;22;20135;-80
2022/10/09 02:01:23;;;;;;;0.70;0.70;;;18.70;54.70;;;;;;6250116;22;20168;-80
2022/10/09 02:03:49;;;;;;;0.80;0.80;;;18.70;54.80;;;;;;6249427;22;20553;-80
2022/10/09 02:06:17;;;;;;;0.77;0.75;;;18.70;54.70;;;;;;6249720;22;20141;-81
2022/10/09 02:08:45;;;;;;;0.68;0.68;;;18.70;54.80;;;;;;6250042;22;20168;-81
2022/10/09 02:11:13;;;;;;;0.63;0.63;;;18.70;54.70;;;;;;6224127;22;20527;-80
2022/10/09 02:13:39;;;;;;;0.90;0.65;;;18.70;54.80;;;;;;6250033;22;20137;-81
2022/10/09 02:16:34;;;;;;;0.50;0.50;;;18.70;54.70;;;;;;6249614;22;20152;-80
2022/10/09 02:19:07;;;;;;;0.60;0.60;;;18.70;54.80;;;;;;6256031;22;20129;-81
2022/10/09 02:21:39;;;;;;;0.60;0.60;;;18.70;54.80;;;;;;6276683;22;20564;-80
2022/10/09 02:24:06;;;;;;;0.75;0.60;;;18.70;54.80;;;;;;6249780;22;20129;-80
2022/10/09 02:26:32;;;;;;;1.08;0.82;;;18.70;54.80;;;;;;6249638;22;20132;-81
2022/10/09 02:28:57;;;;;;;1.35;0.85;;;18.70;54.80;;;;;;6276899;22;20136;-80
2022/10/09 02:31:26;;;;;;;0.68;0.68;;;18.70;54.80;;;;;;6276551;22;20557;-81
2022/10/09 02:34:00;;;;;;;1.00;0.82;;;18.70;54.80;;;;;;6199557;22;20145;-80
2022/10/09 02:36:26;;;;;;;0.50;0.50;;;18.70;54.80;;;;;;6276547;22;20553;-80
2022/10/09 02:38:52;;;;;;;1.00;0.80;;;18.70;54.80;;;;;;6249765;22;20147;-80
2022/10/09 02:41:18;;;;;;;0.95;0.85;;;18.70;55.50;;;;;;6249869;22;20152;-80
2022/10/09 02:43:44;;;;;;;0.60;0.60;;;18.70;54.80;;;;;;6276900;22;20129;-80
2022/10/09 02:46:10;;;;;;;0.80;0.80;;;18.70;54.80;;;;;;6276413;22;20144;-80
2022/10/09 02:48:36;;;;;;;0.70;0.70;;;18.70;54.80;;;;;;6276498;22;20466;-81
2022/10/09 02:51:03;;;;;;;0.93;0.80;;;18.70;54.80;;;;;;6276428;22;20133;-80
2022/10/09 02:53:29;;;;;;;0.98;0.70;;;18.70;54.80;;;;;;6249427;22;20133;-80
2022/10/09 02:55:56;;;;;;;0.80;0.80;;;18.70;54.80;;;;;;6276464;22;20643;-80
2022/10/09 02:58:22;;;;;;;0.90;0.70;;;18.70;54.90;;;;;;6276370;22;20557;-80
2022/10/09 03:00:49;;;;;;;0.88;0.70;;;18.70;54.90;;;;;;6249464;22;20134;-81
2022/10/09 03:03:15;;;;;;;0.80;0.80;;;18.70;54.90;;;;;;6249688;22;20166;-80
2022/10/09 03:05:41;;;;;;;0.65;0.65;;;18.70;54.90;;;;;;6276341;22;20136;-80
2022/10/09 03:08:07;;;;;;;0.70;0.60;;;18.70;54.90;;;;;;6249380;22;20141;-80
2022/10/09 03:10:35;;;;;;;0.95;0.70;;;18.70;54.90;;;;;;6249418;22;20524;-81
2022/10/09 03:13:01;;;;;;;0.82;0.82;;;18.70;54.90;;;;;;6276766;22;20253;-81
2022/10/09 03:15:27;;;;;;;0.70;0.60;;;18.70;54.90;;;;;;6250090;22;20667;-80
2022/10/09 03:17:52;;;;;;;0.98;0.73;;;18.60;54.90;;;;;;6278271;22;20144;-80
2022/10/09 03:20:18;;;;;;;0.60;0.60;;;18.70;55.00;;;;;;6251567;22;20141;-81
2022/10/09 03:22:45;;;;;;;0.63;0.60;;;18.70;55.00;;;;;;6278253;22;20137;-80
2022/10/09 03:25:12;;;;;;;1.00;0.80;;;18.60;55.00;;;;;;6200423;22;20239;-81
2022/10/09 03:27:38;;;;;;;0.85;0.70;;;18.70;55.00;;;;;;6251201;22;20212;-81
2022/10/09 03:30:05;;;;;;;0.75;0.70;;;18.60;55.00;;;;;;6278697;22;20465;-80
2022/10/09 03:32:31;;;;;;;0.82;0.68;;;18.70;55.10;;;;;;6278436;22;20134;-80
2022/10/09 03:34:57;;;;;;;0.93;0.70;;;18.60;55.00;;;;;;6251511;22;20168;-80
2022/10/09 03:37:23;;;;;;;0.75;0.70;;;18.60;55.10;;;;;;6251211;22;20225;-82
2022/10/09 03:39:50;;;;;;;0.80;0.63;;;18.60;55.10;;;;;;6278447;22;20153;-81
2022/10/09 03:42:16;;;;;;;0.80;0.60;;;18.60;55.10;;;;;;6278483;22;20141;-80
2022/10/09 03:44:42;;;;;;;0.80;0.80;;;18.60;55.10;;;;;;6251126;22;20144;-80
2022/10/09 03:47:07;;;;;;;0.70;0.70;;;18.60;55.10;;;;;;6277990;22;20133;-80
2022/10/09 03:49:33;;;;;;;0.82;0.73;;;18.60;55.10;;;;;;6278416;22;20140;-79
2022/10/09 03:51:58;;;;;;;1.02;0.90;;;18.60;55.10;;;;;;6250850;22;20487;-80
2022/10/09 03:54:24;;;;;;;0.70;0.70;;;18.60;55.10;;;;;;6278353;22;20168;-80
2022/10/09 03:56:50;;;;;;;0.70;0.70;;;18.60;55.10;;;;;;6278236;22;20576;-80
2022/10/09 03:59:15;;;;;;;1.00;0.82;;;18.60;55.10;;;;;;6278226;22;20137;-80
2022/10/09 04:01:42;;;;;;;0.80;0.70;;;18.60;55.10;;;;;;6278072;22;20186;-80
2022/10/09 04:04:07;;;;;;;0.70;0.70;;;18.60;55.20;;;;;;6277843;22;20630;-81
2022/10/09 04:06:33;;;;;;;0.77;0.73;;;18.60;55.20;;;;;;6277686;22;20133;-81
2022/10/09 04:09:00;;;;;;;0.98;0.75;;;18.60;55.20;;;;;;6278069;22;20580;-81
2022/10/09 04:11:25;;;;;;;0.60;0.60;;;18.60;55.20;;;;;;6277887;22;20535;-81
2022/10/09 04:13:51;;;;;;;0.93;0.50;;;18.60;55.30;;;;;;6225660;22;20557;-80
2022/10/09 04:16:17;;;;;;;0.52;0.50;;;18.60;55.20;;;;;;6250646;22;20184;-81
2022/10/09 04:18:43;;;;;;;0.88;0.82;;;18.50;55.20;;;;;;6277964;22;20568;-80
2022/10/09 04:21:10;;;;;;;0.73;0.70;;;18.60;55.30;;;;;;6278142;22;20134;-80
2022/10/09 04:23:36;;;;;;;1.23;0.70;;;18.60;55.30;;;;;;6277680;22;20488;-80
2022/10/09 04:26:02;;;;;;;0.60;0.60;;;18.60;55.30;;;;;;6277603;22;20513;-79
2022/10/09 04:28:28;;;;;;;0.60;0.60;;;18.60;55.30;;;;;;6250452;22;20167;-81
2022/10/09 04:30:56;;;;;;;0.70;0.70;;;18.60;55.30;;;;;;6225765;22;20163;-81
2022/10/09 04:33:21;;;;;;;0.85;0.70;;;18.60;55.40;;;;;;6251220;22;20322;-81
2022/10/09 04:35:50;;;;;;;0.77;0.77;;;18.60;55.30;;;;;;6277154;22;20199;-81
2022/10/09 04:38:15;;;;;;;0.77;0.77;;;18.60;55.30;;;;;;6225490;22;20190;-80
2022/10/09 04:40:42;;;;;;;0.70;0.70;;;18.60;55.40;;;;;;6250621;22;20157;-80
2022/10/09 04:43:07;;;;;;;1.45;0.80;;;18.60;55.40;;;;;;6277479;22;20133;-80
2022/10/09 04:45:37;;;;;;;0.82;0.70;;;18.60;55.40;;;;;;6250398;22;20156;-81
2022/10/09 04:48:03;;;;;;;0.75;0.75;;;18.50;55.40;;;;;;6251860;22;20198;-80
2022/10/09 04:50:28;;;;;;;0.93;0.82;;;18.60;55.40;;;;;;6277421;22;20586;-81
2022/10/09 04:52:54;;;;;;;0.80;0.80;;;18.60;55.40;;;;;;6250393;22;20157;-80
2022/10/09 04:55:20;;;;;;;0.80;0.80;;;18.50;55.40;;;;;;6277313;22;20477;-80
2022/10/09 04:57:45;;;;;;;0.60;0.60;;;18.60;55.40;;;;;;6250395;22;20511;-81
2022/10/09 05:00:12;;;;;;;0.70;0.70;;;18.50;55.40;;;;;;6277427;22;20152;-80
2022/10/09 05:02:37;;;;;;;0.73;0.60;;;18.60;55.40;;;;;;6277298;22;20141;-81
2022/10/09 05:05:03;;;;;;;0.70;0.70;;;18.50;55.40;;;;;;6250271;22;20141;-81
2022/10/09 05:07:29;;;;;;;0.70;0.70;;;18.50;55.50;;;;;;6277754;22;20132;-80
2022/10/09 05:09:54;;;;;;;0.95;0.70;;;18.50;55.40;;;;;;6250113;22;20160;-81
2022/10/09 05:12:22;;;;;;;0.60;0.60;;;18.50;55.50;;;;;;6277060;22;20591;-80
2022/10/09 05:14:50;;;;;;;0.63;0.63;;;18.50;55.50;;;;;;6199041;22;20183;-80
2022/10/09 05:17:16;;;;;;;0.70;0.70;;;18.50;55.50;;;;;;6199186;22;20201;-83
2022/10/09 05:19:43;;;;;;;0.80;0.80;;;18.50;55.40;;;;;;6277128;22;20255;-81
2022/10/09 05:22:09;;;;;;;0.85;0.77;;;18.50;55.50;;;;;;6199301;22;20461;-82
2022/10/09 05:24:34;;;;;;;1.10;0.60;;;18.50;55.60;;;;;;6277073;22;20144;-81
2022/10/09 05:27:00;;;;;;;0.68;0.63;;;18.50;55.50;;;;;;6250841;22;20199;-81
2022/10/09 05:29:25;;;;;;;0.98;0.60;;;18.50;55.60;;;;;;6224710;22;20484;-81
2022/10/09 05:31:51;;;;;;;0.65;0.65;;;18.50;55.60;;;;;;6277105;22;20579;-81
2022/10/09 05:34:17;;;;;;;0.80;0.57;;;18.50;55.60;;;;;;6224587;22;20581;-82
2022/10/09 05:36:42;;;;;;;0.70;0.70;;;18.50;55.70;;;;;;6225144;22;20390;-81
2022/10/09 05:39:08;;;;;;;0.73;0.73;;;18.50;55.60;;;;;;6249622;22;20208;-81
2022/10/09 05:41:34;;;;;;;1.48;0.55;;;18.50;55.70;;;;;;6224514;22;20169;-81
2022/10/09 05:44:00;;;;;;;0.73;0.73;;;18.50;55.70;;;;;;6224646;22;20137;-82
2022/10/09 05:46:26;;;;;;;0.80;0.60;;;18.50;55.70;;;;;;6250348;22;20159;-81
2022/10/09 05:48:53;;;;;;;0.63;0.63;;;18.50;55.70;;;;;;6276868;22;20175;-80
2022/10/09 05:51:20;;;;;;;0.80;0.70;;;18.50;55.70;;;;;;6224833;22;20227;-80
2022/10/09 05:53:46;;;;;;;1.20;0.80;;;18.50;55.70;;;;;;6250280;22;20514;-80
2022/10/09 05:56:15;;;;;;;0.50;0.50;;;18.50;55.70;;;;;;6250157;22;20156;-81
2022/10/09 05:58:41;;;;;;;0.70;0.65;;;18.50;55.80;;;;;;6249775;22;20145;-81
2022/10/09 06:01:07;;;;;;;0.80;0.68;;;18.50;55.80;;;;;;6277068;22;20216;-82
2022/10/09 06:03:34;;;;;;;0.80;0.68;;;18.50;55.80;;;;;;6276666;22;20125;-81
2022/10/09 06:06:01;;;;;;;0.63;0.60;;;18.50;55.80;;;;;;6249867;22;20222;-80
2022/10/09 06:08:27;;;;;;;0.68;0.60;;;18.50;55.80;;;;;;6224715;22;20137;-80
2022/10/09 06:10:52;;;;;;;0.95;0.80;;;18.40;55.80;;;;;;6224741;22;20159;-80
2022/10/09 06:13:18;;;;;;;0.55;0.50;;;18.50;55.80;;;;;;6219087;23;20224;-80
2022/10/09 06:15:52;;;;;;;0.90;0.73;;;18.40;55.70;;;;;;6246186;23;20172;-81
2022/10/09 06:18:19;;;;;;;1.35;0.57;;;18.50;55.80;;;;;;6246085;22;20137;-81
2022/10/09 06:20:54;;;;;;;0.90;0.75;;;18.50;55.80;;;;;;6168753;23;20150;-80
2022/10/09 06:23:21;;;;;;;1.35;0.80;;;18.50;55.80;;;;;;6193898;23;20234;-81
2022/10/09 06:25:57;;;;;;;0.60;0.60;;;18.50;55.80;;;;;;6169059;23;20179;-80
2022/10/09 06:28:24;;;;;;;1.17;0.70;;;18.50;55.80;;;;;;6169630;23;20156;-80
2022/10/09 06:30:50;;;;;;;0.60;0.60;;;18.50;55.70;;;;;;6193728;23;20161;-83
2022/10/09 06:33:18;;;;;;;0.63;0.60;;;18.50;55.70;;;;;;6193566;23;20153;-82
2022/10/09 06:35:44;;;;;;;0.68;0.60;;;18.50;55.70;;;;;;6168390;23;20185;-82
2022/10/09 06:38:09;;;;;;;0.68;0.60;;;18.50;55.70;;;;;;6246262;23;20172;-82
2022/10/09 06:40:36;;;;;;;0.80;0.70;;;18.50;55.70;;;;;;6244881;23;20137;-81
2022/10/09 06:43:02;;;;;;;0.60;0.60;;;18.50;55.70;;;;;;6219652;23;20149;-82
2022/10/09 06:45:28;;;;;;;1.20;0.50;;;18.50;55.70;;;;;;6245908;22;20134;-82
2022/10/09 06:47:54;;;;;;;0.60;0.60;;;18.50;55.70;;;;;;6246195;23;20266;-80
2022/10/09 06:50:19;;;;;;;1.02;0.60;;;18.50;55.70;;;;;;6246531;22;20168;-82
2022/10/09 06:52:45;;;;;;;0.68;0.68;;;18.50;55.70;;;;;;6246518;23;20450;-81
2022/10/09 06:55:10;;;;;;;0.77;0.60;;;18.50;55.60;;;;;;6246253;23;20169;-80
2022/10/09 06:57:36;;;;;;;0.60;0.60;;;18.50;55.60;;;;;;6246425;23;20186;-81
2022/10/09 07:00:03;;;;;;;0.50;0.50;;;18.60;55.70;;;;;;6247866;23;20134;-82
2022/10/09 07:02:31;;;;;;;0.60;0.60;;;18.50;55.70;;;;;;6221355;23;20465;-81
2022/10/09 07:05:00;;;;;;;0.60;0.50;;;18.60;55.70;;;;;;6246464;23;20144;-79
2022/10/09 07:07:29;;;;;;;0.68;0.68;;;18.60;55.70;;;;;;6195478;23;20581;-80
2022/10/09 07:09:58;;;;;;;0.90;0.70;;;18.60;55.60;;;;;;6195385;23;20157;-80
2022/10/09 07:12:24;;;;;;;0.70;0.70;;;18.70;55.70;;;;;;6195499;23;20633;-80
2022/10/09 07:14:52;;;;;;;0.60;0.60;;;18.60;55.50;;;;;;6248107;23;20265;-82
2022/10/09 07:17:18;;;;;;;0.88;0.80;;;18.60;55.50;;;;;;6170944;23;20236;-80
2022/10/09 07:19:47;;;;;;;0.70;0.60;;;18.60;55.40;;;;;;6248296;23;20600;-81
2022/10/09 07:22:15;;;;;;;0.80;0.50;;;18.60;55.30;;;;;;6195720;23;20153;-82
2022/10/09 07:24:43;;;;;;;0.65;0.60;;;18.70;55.00;;;;;;6195411;23;20159;-81
2022/10/09 07:27:12;;;;;;;0.45;0.43;;;18.70;54.50;;;;;;6195518;23;20649;-80
2022/10/09 07:29:37;;;;;;;0.50;0.50;;;18.80;54.40;;;;;;6170229;23;20473;-82
2022/10/09 07:32:03;;;;;;;0.43;0.43;;;18.80;54.30;;;;;;6246098;23;20136;-81
2022/10/09 07:34:28;;;;;;;0.82;0.60;;;18.80;54.10;;;;;;6247462;23;20239;-80
2022/10/09 07:36:55;;;;;;;0.57;0.57;;;18.90;54.10;;;;;;6220579;23;20145;-80
2022/10/09 07:39:21;;;;;;;0.70;0.60;;;18.90;54.00;;;;;;6247568;23;20149;-80
2022/10/09 07:41:49;;;;;;;0.40;0.40;;;18.80;54.10;;;;;;6247256;23;20134;-82
2022/10/09 07:44:14;;;;;;;0.60;0.55;;;18.90;53.90;;;;;;6220554;23;20145;-81
2022/10/09 07:46:40;;;;;;;0.80;0.60;;;18.90;53.70;;;;;;6247775;23;20145;-81
2022/10/09 07:49:06;;;;;;;0.43;0.43;;;19.00;53.60;;;;;;6245959;23;20175;-80
2022/10/09 07:51:33;;;;;;;0.50;0.50;;;19.00;53.50;;;;;;6247282;23;20136;-82
2022/10/09 07:54:01;;;;;;;0.50;0.50;;;19.00;53.60;;;;;;6194758;23;20156;-81
2022/10/09 07:56:30;;;;;;;0.60;0.60;;;19.00;53.50;;;;;;6194846;23;20185;-82
2022/10/09 07:58:59;;;;;;;0.50;0.50;;;19.00;53.70;;;;;;6145375;23;20488;-81
2022/10/09 08:01:26;;;;;;;0.47;0.45;;;19.00;53.50;;;;;;6194990;23;20168;-81
2022/10/09 08:03:52;;;;;;;0.75;0.50;;;18.90;53.50;;;;;;6195838;23;20153;-80
2022/10/09 08:06:18;;;;;;;0.50;0.40;;;19.00;53.60;;;;;;6245741;23;20133;-79
2022/10/09 08:08:44;;;;;;;0.50;0.50;;;18.90;53.50;;;;;;6245768;23;20133;-82
2022/10/09 08:11:11;;;;;;;0.40;0.40;;;19.00;53.40;;;;;;6220482;23;20136;-80
2022/10/09 08:13:36;;;;;;;0.40;0.40;;;18.90;53.20;;;;;;6220458;23;20197;-82
2022/10/09 08:16:02;;;;;;;0.60;0.55;;;19.00;53.10;;;;;;6245594;23;20161;-81
2022/10/09 08:18:28;;;;;;;0.50;0.47;;;19.00;52.90;;;;;;6245683;23;20569;-83
2022/10/09 08:20:56;;;;;;;0.45;0.45;;;18.90;53.00;;;;;;6247066;23;20140;-81
2022/10/09 08:23:22;;;;;;;0.55;0.55;;;19.00;53.10;;;;;;6220215;23;20146;-80
2022/10/09 08:25:48;;;;;;;0.55;0.45;;;19.00;52.80;;;;;;6246045;23;20134;-80
2022/10/09 08:28:15;;;;;;;0.40;0.40;;;19.00;53.00;;;;;;6220611;23;20544;-82
2022/10/09 08:30:41;;;;;;;0.50;0.50;;;19.10;52.80;;;;;;6245354;23;20236;-82
2022/10/09 08:33:07;;;;;;;0.40;0.40;;;19.10;52.70;;;;;;6247026;23;20463;-82
2022/10/09 08:35:32;;;;;;;0.75;0.60;;;19.10;52.50;;;;;;6245289;23;20240;-80
2022/10/09 08:37:58;;;;;;;0.40;0.40;;;19.00;52.60;;;;;;6246979;23;20562;-82
2022/10/09 08:40:32;;;;;;;0.35;0.35;;;19.00;52.50;;;;;;6246880;23;20160;-83
2022/10/09 08:43:02;;;;;;;0.40;0.40;;;19.00;52.60;;;;;;6247237;22;20187;-81
2022/10/09 08:45:28;;;;;;;0.60;0.43;;;19.00;52.50;;;;;;6245530;23;20141;-81
2022/10/09 08:47:57;;;;;;;0.30;0.30;;;19.00;52.50;;;;;;6219956;23;20154;-82
2022/10/09 08:50:26;;;;;;;1.50;0.45;;;19.00;52.40;;;;;;6245463;23;20134;-81
2022/10/09 08:53:22;;;;;;;0.30;0.30;;;19.00;52.40;;;;;;6247086;22;20469;-82
2022/10/09 08:55:52;;;;;;;0.68;0.50;;;19.00;52.10;;;;;;6246920;22;20177;-82
2022/10/09 08:58:19;;;;;;;0.40;0.40;;;19.00;52.00;;;;;;6245268;23;20462;-80
2022/10/09 09:00:52;;;;;;;0.35;0.28;;;19.00;51.90;;;;;;6220054;23;20141;-82
2022/10/09 09:03:37;;;;;;;0.60;0.50;;;19.10;52.00;;;;;;6219891;23;20249;-81
2022/10/09 09:06:08;;;;;;;0.40;0.40;;;19.10;51.90;;;;;;6246996;22;20672;-81
2022/10/09 09:08:47;;;;;;;0.45;0.40;;;19.10;51.60;;;;;;6244917;23;20136;-81
2022/10/09 09:11:38;;;;;;;0.30;0.30;;;19.10;51.60;;;;;;6246791;22;20149;-80
2022/10/09 09:14:36;;;;;;;0.30;0.30;;;19.10;51.70;;;;;;6153299;23;20469;-81
2022/10/09 09:17:33;;;;;;;0.60;0.40;;;19.10;52.20;;;;;;6245455;23;20144;-82
2022/10/09 09:20:22;;;;;;;0.40;0.40;;;19.10;51.10;;;;;;6245058;23;20130;-81
2022/10/09 09:22:49;;;;;;;0.32;0.32;;;19.10;51.30;;;;;;6246867;22;20129;-81
2022/10/09 09:25:21;;;;;;;0.38;0.38;;;19.10;51.40;;;;;;6194313;23;20188;-80
2022/10/09 09:27:48;;;;;;;0.47;0.40;;;19.00;51.50;;;;;;6194510;23;20580;-81
2022/10/09 09:30:19;;;;;;;0.30;0.30;;;19.00;51.20;;;;;;6193558;23;20157;-82
2022/10/09 09:32:58;;;;;;;0.75;0.30;;;19.10;51.10;;;;;;6170089;23;20173;-81
2022/10/09 09:35:35;;;;;;;0.30;0.30;;;19.00;50.90;;;;;;6172463;23;20177;-80
2022/10/09 09:38:14;;;;;;;0.30;0.30;;;19.10;50.70;;;;;;6195774;23;20153;-81
2022/10/09 09:40:41;;;;;;;0.40;0.40;;;19.10;50.70;;;;;;6195287;23;20228;-83
2022/10/09 09:43:21;;;;;;;0.30;0.30;;;19.20;50.30;;;;;;6168313;23;20231;-83
2022/10/09 09:45:48;;;;;;;0.25;0.25;;;19.20;49.90;;;;;;6173913;23;20160;-80
2022/10/09 09:48:20;;;;;;;0.50;0.50;;;19.20;49.80;;;;;;6169371;23;20164;-80
2022/10/09 09:50:47;;;;;;;0.57;0.30;;;19.20;49.90;;;;;;6170945;23;20676;-81
2022/10/09 09:53:22;;;;;;;0.30;0.30;;;19.20;50.00;;;;;;6193838;23;20593;-79
2022/10/09 09:55:52;;;;;;;0.30;0.30;;;19.20;49.60;;;;;;6172970;23;20180;-82
2022/10/09 09:58:19;;;;;;;0.40;0.40;;;19.20;50.00;;;;;;6194028;23;20154;-78
2022/10/09 10:00:55;;;;;;;0.50;0.40;;;19.10;49.70;;;;;;6246249;23;20168;-81
2022/10/09 10:03:22;;;;;;;0.32;0.32;;;19.10;49.80;;;;;;6245217;23;20145;-81
2022/10/09 10:05:48;;;;;;;0.20;0.20;;;19.10;49.40;;;;;;6219285;23;20145;-82
2022/10/09 10:08:33;;;;;;;0.30;0.30;;;19.20;49.00;;;;;;6246732;23;20224;-82
2022/10/09 10:11:01;;;;;;;0.20;0.20;;;19.20;49.10;;;;;;6246479;22;20148;-82
2022/10/09 10:13:48;;;;;;;0.30;0.20;;;19.20;48.60;;;;;;6274008;22;20188;-82
2022/10/09 10:16:23;;;;;;;0.20;0.20;;;19.20;48.90;;;;;;6250203;22;20173;-81
2022/10/09 10:18:49;;;;;;;0.32;0.30;;;19.20;48.80;;;;;;6249671;22;20175;-82
2022/10/09 10:21:17;;;;;;;0.30;0.30;;;19.20;48.80;;;;;;6278135;22;20137;-81
2022/10/09 10:24:03;;;;;;;0.40;0.40;;;19.20;48.70;;;;;;6250659;22;20137;-81
2022/10/09 10:26:34;;;;;;;0.40;0.40;;;19.20;48.10;;;;;;6229423;22;20132;-81
2022/10/09 10:29:34;;;;;;;0.32;0.30;;;19.20;48.50;;;;;;6277172;22;20144;-81
2022/10/09 10:32:15;;;;;;;0.32;0.30;;;19.20;48.30;;;;;;6258631;22;20160;-82
2022/10/09 10:35:01;;;;;;;0.30;0.30;;;19.20;48.20;;;;;;6278106;22;20615;-80
2022/10/09 10:37:40;;;;;;;0.32;0.32;;;19.20;48.10;;;;;;6278279;22;20137;-81
2022/10/09 10:40:21;;;;;;;0.50;0.30;;;19.20;48.10;;;;;;6277774;22;20129;-81
2022/10/09 10:43:00;;;;;;;0.30;0.20;;;19.10;47.90;;;;;;6250245;22;20153;-80
2022/10/09 10:45:33;;;;;;;2.05;0.50;;;19.10;47.80;;;;;;6251738;22;20565;-79
2022/10/09 10:48:00;;;;;;;0.45;0.40;;;19.10;47.90;;;;;;6278754;22;20505;-81
2022/10/09 10:50:29;;;;;;;0.35;0.35;;;19.10;47.80;;;;;;6250804;22;20576;-80
2022/10/09 10:53:04;;;;;;;0.30;0.30;;;19.10;47.90;;;;;;6226701;22;20635;-81
2022/10/09 10:55:49;;;;;;;0.30;0.30;;;19.10;47.50;;;;;;6226973;22;20178;-82
2022/10/09 10:58:40;;;;;;;1.58;0.32;;;19.20;47.60;;;;;;6251804;22;20133;-81
2022/10/09 11:01:38;;;;;;;0.50;0.50;;;19.10;47.60;;;;;;6231737;22;20659;-81
2022/10/09 11:04:35;;;;;;;0.50;0.30;;;19.20;47.50;;;;;;6278486;22;20151;-82
2022/10/09 11:07:22;;;;;;;0.40;0.40;;;19.20;47.40;;;;;;6227313;22;20153;-80
2022/10/09 11:10:08;;;;;;;0.22;0.20;;;19.20;47.40;;;;;;6278661;22;20160;-81
2022/10/09 11:12:41;;;;;;;0.47;0.43;;;19.20;47.20;;;;;;6178954;22;20196;-79
2022/10/09 11:15:36;;;;;;;0.47;0.30;;;19.20;47.10;;;;;;6249835;22;20187;-79
2022/10/09 11:18:23;;;;;;;0.30;0.30;;;19.20;47.10;;;;;;6277219;22;20136;-81
2022/10/09 11:21:13;;;;;;;0.20;0.20;;;19.20;46.80;;;;;;6249764;22;20509;-82
2022/10/09 11:24:02;;;;;;;0.30;0.30;;;19.20;46.80;;;;;;6276315;22;20133;-81
2022/10/09 11:27:03;;;;;;;0.22;0.22;;;19.20;46.70;;;;;;6249332;22;20584;-80
2022/10/09 11:29:35;;;;;;;0.30;0.30;;;19.20;46.70;;;;;;6276531;22;20172;-81
2022/10/09 11:32:05;;;;;;;0.40;0.40;;;19.20;46.60;;;;;;6276230;22;20180;-82
2022/10/09 11:34:36;;;;;;;0.20;0.20;;;19.20;46.50;;;;;;6276673;22;20240;-80
2022/10/09 11:37:02;;;;;;;1.48;0.30;;;19.20;46.50;;;;;;6250906;22;20137;-81
2022/10/09 11:39:29;;;;;;;0.30;0.30;;;19.20;46.50;;;;;;6278291;22;20159;-81
2022/10/09 11:41:55;;;;;;;0.95;0.40;;;19.20;46.40;;;;;;6251827;22;20133;-82
2022/10/09 11:44:44;;;;;;;0.20;0.20;;;19.20;46.30;;;;;;6278093;22;20243;-81
2022/10/09 11:47:43;;;;;;;0.38;0.38;;;19.20;46.40;;;;;;6278298;22;20164;-80
2022/10/09 11:50:19;;;;;;;0.20;0.20;;;19.20;46.40;;;;;;6251440;22;20488;-82
2022/10/09 11:52:53;;;;;;;0.30;0.30;;;19.20;46.30;;;;;;6252019;22;20129;-80
2022/10/09 11:55:21;;;;;;;0.30;0.28;;;19.20;46.20;;;;;;6277852;22;20160;-80
2022/10/09 11:57:48;;;;;;;0.30;0.30;;;19.20;46.30;;;;;;6250684;22;20136;-81
2022/10/09 12:00:14;;;;;;;0.20;0.20;;;19.20;46.40;;;;;;6250990;22;20198;-81
2022/10/09 12:02:40;;;;;;;0.30;0.30;;;19.20;46.30;;;;;;6277866;22;20137;-80
2022/10/09 12:05:34;;;;;;;0.20;0.20;;;19.20;46.30;;;;;;6278296;22;20144;-79
2022/10/09 12:08:15;;;;;;;0.45;0.40;;;19.20;46.20;;;;;;6278940;22;20620;-79
2022/10/09 12:10:51;;;;;;;0.30;0.30;;;19.20;46.00;;;;;;6251611;22;20506;-80
2022/10/09 12:13:42;;;;;;;0.30;0.30;;;19.20;46.00;;;;;;6245877;23;20636;-79
2022/10/09 12:16:15;;;;;;;0.30;0.30;;;19.20;46.00;;;;;;6248811;22;20173;-79
2022/10/09 12:18:45;;;;;;;1.83;0.30;;;19.20;45.80;;;;;;6246402;23;20195;-80
2022/10/09 12:21:22;;;;;;;0.30;0.30;;;19.20;45.90;;;;;;6220219;23;20172;-81
2022/10/09 12:23:48;;;;;;;0.20;0.20;;;19.20;45.50;;;;;;6246901;22;20156;-81
2022/10/09 12:26:14;;;;;;;0.30;0.30;;;19.20;45.60;;;;;;6246777;23;20138;-81
2022/10/09 12:28:44;;;;;;;0.50;0.32;;;19.20;45.60;;;;;;6246859;23;20137;-82
2022/10/09 12:31:29;;;;;;;0.30;0.30;;;19.30;45.70;;;;;;6246922;22;20137;-80
2022/10/09 12:34:25;;;;;;;0.47;0.20;;;19.20;45.50;;;;;;6245630;23;20596;-81
2022/10/09 12:37:03;;;;;;;0.50;0.30;;;19.20;45.40;;;;;;6247096;22;20149;-79
2022/10/09 12:39:32;;;;;;;0.30;0.20;;;19.20;45.40;;;;;;6246980;22;20212;-81
2022/10/09 12:41:58;;;;;;;0.22;0.22;;;19.20;45.40;;;;;;6247231;23;20158;-80
2022/10/09 12:44:29;;;;;;;0.30;0.30;;;19.20;45.40;;;;;;6246654;23;20133;-81
2022/10/09 12:47:02;;;;;;;0.25;0.25;;;19.20;45.30;;;;;;6245870;23;20218;-80
2022/10/09 12:49:28;;;;;;;0.30;0.30;;;19.20;45.30;;;;;;6220042;23;20161;-80
2022/10/09 12:51:56;;;;;;;0.30;0.30;;;19.20;45.30;;;;;;6246697;22;20134;-81
2022/10/09 12:54:24;;;;;;;0.20;0.20;;;19.30;45.30;;;;;;6169588;23;20157;-81
2022/10/09 12:56:55;;;;;;;0.30;0.25;;;19.20;45.00;;;;;;6246643;23;20126;-80
2022/10/09 12:59:21;;;;;;;0.45;0.30;;;19.20;45.10;;;;;;6172212;23;20153;-82
2022/10/09 13:01:47;;;;;;;0.55;0.30;;;19.30;45.10;;;;;;6247567;22;20134;-80
2022/10/09 13:04:31;;;;;;;1.50;0.30;;;19.30;45.20;;;;;;6248674;23;20141;-80